Time;durP1;ratioP1;P1;durP2;ratioP2;P2;SDS_P1;SDS_P2;PMS_P1;PMS_P2;Temp;Humidity;BMP_temperature;BMP_pressure;BME280_temperature;BME280_humidity;BME280_pressure;Samples;Min_cycle;Max_cycle;Signal;HPM_P1;HPM_P2
2021/03/31 00:03:49;;;;;;;12.53;7.90;;;;;;;12.97;42.33;98966.72;8301256;28;20205;-72
2021/03/31 00:07:51;;;;;;;9.63;7.83;;;;;;;12.92;42.33;98971.22;8328965;28;20495;-71
2021/03/31 00:11:52;;;;;;;11.67;7.80;;;;;;;12.80;42.52;98961.31;8331758;28;20763;-72
2021/03/31 00:15:55;;;;;;;11.40;7.33;;;;;;;12.84;42.42;98961.13;8331660;28;20220;-73
2021/03/31 00:19:59;;;;;;;13.17;7.37;;;;;;;12.78;42.47;98960.53;8331562;28;20193;-72
2021/03/31 00:24:01;;;;;;;11.70;7.43;;;;;;;12.71;42.80;98952.94;8331344;28;20196;-72
2021/03/31 00:28:03;;;;;;;10.03;7.57;;;;;;;12.68;42.93;98942.66;8331166;28;20243;-72
2021/03/31 00:32:06;;;;;;;12.53;7.80;;;;;;;12.71;43.18;98945.13;8331370;28;20600;-73
2021/03/31 00:36:09;;;;;;;11.63;8.00;;;;;;;12.64;43.12;98945.41;8331013;28;20216;-70
2021/03/31 00:40:13;;;;;;;12.13;8.10;;;;;;;12.60;43.25;98946.44;8331097;28;20247;-71
2021/03/31 00:44:19;;;;;;;13.80;7.27;;;;;;;12.57;42.97;98939.63;8330859;28;20204;-71
2021/03/31 00:48:21;;;;;;;13.13;8.00;;;;;;;12.48;43.29;98938.19;8330266;28;20286;-71
2021/03/31 00:52:24;;;;;;;10.03;7.40;;;;;;;12.50;43.08;98931.19;8330610;28;20196;-71
2021/03/31 00:56:26;;;;;;;12.27;7.90;;;;;;;12.42;43.67;98927.19;8330558;28;20224;-71
2021/03/31 01:00:29;;;;;;;12.47;7.07;;;;;;;12.42;43.47;98934.97;8330583;28;20640;-71
2021/03/31 01:04:31;;;;;;;13.33;8.10;;;;;;;12.30;43.49;98925.88;8330323;28;20242;-70
2021/03/31 01:08:34;;;;;;;10.23;7.73;;;;;;;12.20;43.48;98921.91;8330612;28;20200;-68
2021/03/31 01:12:58;;;;;;;12.23;7.83;;;;;;;12.17;44.11;98922.88;8326915;28;20246;-71
2021/03/31 01:17:04;;;;;;;9.67;8.13;;;;;;;12.12;44.22;98917.81;8299103;28;20216;-70
2021/03/31 01:21:52;;;;;;;13.17;7.93;;;;;;;12.03;43.90;98923.38;8297439;28;20204;-70
2021/03/31 01:26:00;;;;;;;13.27;7.37;;;;;;;12.10;43.75;98919.63;8297359;28;20220;-70
2021/03/31 01:30:06;;;;;;;15.30;7.93;;;;;;;11.98;44.17;98916.66;8297466;28;20229;-71
2021/03/31 01:34:31;;;;;;;12.27;6.90;;;;;;;12.04;44.11;98921.63;8297063;28;20331;-70
2021/03/31 01:38:33;;;;;;;16.70;7.77;;;;;;;11.90;44.11;98909.13;8287014;28;20236;-71
2021/03/31 01:42:40;;;;;;;13.50;7.30;;;;;;;11.87;44.37;98911.78;8299054;28;20304;-70
2021/03/31 01:46:45;;;;;;;15.03;7.50;;;;;;;11.95;44.28;98908.97;8296690;28;20251;-70
2021/03/31 01:50:51;;;;;;;12.93;7.60;;;;;;;11.87;44.17;98904.00;8296098;28;20526;-70
2021/03/31 01:54:54;;;;;;;11.70;7.53;;;;;;;11.80;44.65;98902.50;8296555;28;20185;-70
2021/03/31 01:58:57;;;;;;;13.83;8.00;;;;;;;11.74;44.65;98891.44;8296282;28;20193;-70
2021/03/31 02:03:00;;;;;;;9.67;7.90;;;;;;;11.63;44.83;98890.09;8325848;28;20208;-70
2021/03/31 02:07:05;;;;;;;12.10;8.07;;;;;;;11.66;44.62;98888.25;8328284;28;20209;-70
2021/03/31 02:11:07;;;;;;;14.63;8.03;;;;;;;11.62;44.46;98884.06;8328419;28;20277;-70
2021/03/31 02:15:10;;;;;;;13.40;8.13;;;;;;;11.42;45.18;98889.06;8328679;28;20507;-70
2021/03/31 02:19:14;;;;;;;9.50;7.57;;;;;;;11.44;44.82;98892.47;8328277;28;20204;-70
2021/03/31 02:23:16;;;;;;;11.37;7.53;;;;;;;11.41;44.99;98890.84;8333575;28;20531;-70
2021/03/31 02:27:18;;;;;;;12.57;7.73;;;;;;;11.38;45.25;98882.31;8334946;28;20220;-70
2021/03/31 02:31:21;;;;;;;10.50;7.57;;;;;;;11.38;45.01;98888.31;8334689;28;20771;-70
2021/03/31 02:35:23;;;;;;;11.17;8.07;;;;;;;11.34;44.88;98881.56;8335097;28;20262;-70
2021/03/31 02:39:27;;;;;;;11.63;7.90;;;;;;;11.27;45.02;98877.47;8334516;28;20243;-70
2021/03/31 02:43:29;;;;;;;10.00;8.20;;;;;;;11.22;45.20;98882.81;8335075;28;20528;-70
2021/03/31 02:47:32;;;;;;;10.60;7.80;;;;;;;11.26;45.48;98883.56;8334580;28;20204;-70
2021/03/31 02:51:35;;;;;;;14.40;8.47;;;;;;;11.16;45.49;98883.00;8334035;28;20220;-71
2021/03/31 02:55:39;;;;;;;14.07;7.93;;;;;;;11.20;45.18;98876.81;8334523;28;20236;-70
2021/03/31 02:59:41;;;;;;;14.50;7.30;;;;;;;11.13;45.15;98867.53;8334239;28;20255;-70
2021/03/31 03:03:44;;;;;;;17.73;8.57;;;;;;;11.06;45.87;98872.09;8334604;28;20349;-71
2021/03/31 03:07:46;;;;;;;10.60;7.80;;;;;;;11.11;45.71;98866.75;8333892;28;20201;-70
2021/03/31 03:11:49;;;;;;;12.37;8.40;;;;;;;11.05;45.53;98862.59;8334189;28;20267;-70
2021/03/31 03:15:51;;;;;;;14.17;8.40;;;;;;;11.08;45.51;98859.94;8333807;28;20232;-70
2021/03/31 03:19:53;;;;;;;11.30;7.80;;;;;;;10.98;45.79;98850.72;8334076;28;20307;-71
2021/03/31 03:23:56;;;;;;;16.53;8.73;;;;;;;10.92;45.88;98853.53;8333763;28;20503;-70
2021/03/31 03:27:59;;;;;;;13.57;8.27;;;;;;;10.90;46.16;98855.31;8333262;28;20597;-70
2021/03/31 03:32:03;;;;;;;12.97;8.80;;;;;;;10.79;46.21;98847.03;8332179;28;20204;-71
2021/03/31 03:36:05;;;;;;;13.33;9.00;;;;;;;10.80;45.41;98847.00;8333087;28;20232;-70
2021/03/31 03:40:09;;;;;;;14.27;9.00;;;;;;;10.77;45.71;98844.47;8332599;28;20239;-70
2021/03/31 03:44:11;;;;;;;15.30;8.67;;;;;;;10.73;46.08;98842.88;8333822;28;20192;-70
2021/03/31 03:48:13;;;;;;;14.20;8.80;;;;;;;10.67;45.87;98837.91;8332385;28;20201;-70
2021/03/31 03:52:15;;;;;;;13.57;8.63;;;;;;;10.68;46.16;98844.75;8332368;28;20201;-70
2021/03/31 03:56:18;;;;;;;17.97;8.27;;;;;;;10.64;46.11;98841.44;8332352;28;20223;-70
2021/03/31 04:00:25;;;;;;;14.27;8.07;;;;;;;10.59;46.08;98848.50;8332489;28;20211;-70
2021/03/31 04:04:27;;;;;;;14.57;8.33;;;;;;;10.57;46.39;98845.94;8332302;28;20255;-70
2021/03/31 04:08:29;;;;;;;11.87;8.50;;;;;;;10.44;46.75;98844.63;8332571;28;20224;-70
2021/03/31 04:12:32;;;;;;;12.70;8.07;;;;;;;10.44;46.68;98844.63;8332101;28;20200;-70
2021/03/31 04:16:35;;;;;;;16.87;8.70;;;;;;;10.55;46.39;98846.91;8332385;28;20224;-70
2021/03/31 04:20:37;;;;;;;13.17;8.53;;;;;;;10.43;46.64;98840.31;8332502;28;20643;-70
2021/03/31 04:24:40;;;;;;;14.10;8.83;;;;;;;10.43;46.53;98842.06;8331771;28;20197;-70
2021/03/31 04:28:42;;;;;;;13.60;8.77;;;;;;;10.42;46.36;98846.41;8331300;28;20231;-70
2021/03/31 04:32:48;;;;;;;11.10;8.20;;;;;;;10.30;46.65;98842.44;8331587;28;20197;-70
2021/03/31 04:36:50;;;;;;;15.17;8.70;;;;;;;10.33;47.10;98837.16;8331341;28;20216;-70
2021/03/31 04:40:55;;;;;;;18.70;9.37;;;;;;;10.29;46.91;98835.53;8331656;28;20232;-70
2021/03/31 04:44:56;;;;;;;18.73;9.30;;;;;;;10.34;47.18;98831.09;8330057;28;20251;-70
2021/03/31 04:49:00;;;;;;;14.87;8.53;;;;;;;10.37;46.84;98836.16;8331077;28;20215;-70
2021/03/31 04:53:02;;;;;;;14.90;8.30;;;;;;;10.32;46.76;98835.47;8330095;28;20192;-70
2021/03/31 04:57:04;;;;;;;18.63;8.63;;;;;;;10.28;46.77;98830.38;8330852;28;20682;-70
2021/03/31 05:01:07;;;;;;;14.27;8.90;;;;;;;10.35;47.04;98832.78;8330429;28;20216;-70
2021/03/31 05:05:10;;;;;;;16.03;9.00;;;;;;;10.36;46.63;98837.09;8330004;28;20201;-70
2021/03/31 05:09:12;;;;;;;18.70;8.60;;;;;;;10.34;46.94;98836.28;8327186;28;20201;-71
2021/03/31 05:13:14;;;;;;;12.13;9.23;;;;;;;10.40;47.30;98831.81;8326918;28;20197;-70
2021/03/31 05:17:16;;;;;;;15.27;9.30;;;;;;;10.35;47.29;98832.78;8325984;28;20224;-70
2021/03/31 05:21:19;;;;;;;17.73;8.70;;;;;;;10.30;46.43;98832.09;8327334;28;20239;-71
2021/03/31 05:25:21;;;;;;;16.60;8.80;;;;;;;10.33;46.35;98834.56;8327197;28;20196;-70
2021/03/31 05:29:27;;;;;;;18.83;9.53;;;;;;;10.49;46.08;98824.63;8326686;28;20232;-70
2021/03/31 05:33:29;;;;;;;14.07;9.03;;;;;;;10.74;45.69;98829.88;8318434;28;20276;-70
2021/03/31 05:37:32;;;;;;;14.80;9.60;;;;;;;10.88;45.49;98826.84;8312820;28;20216;-70
2021/03/31 05:41:34;;;;;;;19.53;9.37;;;;;;;10.94;45.55;98821.47;8315129;28;20204;-70
2021/03/31 05:45:37;;;;;;;18.47;9.97;;;;;;;11.18;44.96;98819.00;8312301;28;20239;-70
2021/03/31 05:49:40;;;;;;;14.77;9.07;;;;;;;11.60;44.29;98812.41;8311703;28;20199;-70
2021/03/31 05:53:43;;;;;;;17.83;9.10;;;;;;;11.90;43.80;98815.69;8313734;28;20663;-70
2021/03/31 05:57:46;;;;;;;12.30;8.70;;;;;;;12.15;43.35;98818.22;8310399;28;20221;-70
2021/03/31 06:01:48;;;;;;;22.10;9.40;;;;;;;12.46;42.83;98820.50;8312774;28;20212;-70
2021/03/31 06:05:50;;;;;;;22.17;9.27;;;;;;;12.50;42.59;98827.25;8318900;28;20663;-70
2021/03/31 06:10:07;;;;;;;20.90;9.00;;;;;;;12.46;42.69;98832.66;8311449;28;20230;-70
2021/03/31 06:14:09;;;;;;;18.77;9.80;;;;;;;12.81;41.91;98833.88;8311376;28;20547;-70
2021/03/31 06:18:13;;;;;;;19.20;9.90;;;;;;;12.82;42.33;98832.13;8296102;28;20565;-70
2021/03/31 06:22:19;;;;;;;17.07;9.27;;;;;;;13.35;41.49;98828.28;8315862;28;20196;-70
2021/03/31 06:26:25;;;;;;;14.07;8.90;;;;;;;12.76;42.89;98822.81;8301029;28;20189;-70
2021/03/31 06:30:28;;;;;;;13.87;9.27;;;;;;;12.96;42.53;98822.00;8326490;28;20595;-70
2021/03/31 06:34:33;;;;;;;12.80;7.87;;;;;;;13.00;42.74;98827.94;8328042;28;20255;-70
2021/03/31 06:38:36;;;;;;;18.47;8.50;;;;;;;13.10;42.10;98831.88;8310152;28;20231;-70
2021/03/31 06:42:43;;;;;;;15.30;8.17;;;;;;;13.57;41.29;98823.84;8326388;28;20262;-70
2021/03/31 06:46:51;;;;;;;12.97;9.23;;;;;;;12.87;42.42;98827.56;8325077;28;20199;-70
2021/03/31 06:50:53;;;;;;;13.90;7.67;;;;;;;13.37;41.87;98829.91;8295689;28;20185;-70
2021/03/31 06:54:59;;;;;;;13.63;8.37;;;;;;;13.05;42.63;98824.22;8301767;28;20265;-70
2021/03/31 06:59:02;;;;;;;13.80;8.13;;;;;;;13.05;42.62;98816.44;8328099;28;20209;-70
2021/03/31 07:03:07;;;;;;;16.77;9.00;;;;;;;13.63;41.85;98814.91;8327478;28;20624;-70
2021/03/31 07:07:10;;;;;;;15.27;8.30;;;;;;;14.12;40.92;98820.56;8329255;28;20192;-70
2021/03/31 07:11:12;;;;;;;15.03;8.50;;;;;;;14.38;39.63;98821.16;8333551;28;20200;-70
2021/03/31 07:15:16;;;;;;;20.37;9.07;;;;;;;14.95;38.96;98816.72;8334100;28;20247;-70
2021/03/31 07:19:19;;;;;;;11.50;8.03;;;;;;;15.45;38.04;98815.13;8318056;28;20274;-70
2021/03/31 07:23:42;;;;;;;13.87;7.90;;;;;;;15.73;37.72;98817.19;8325132;28;20207;-70
2021/03/31 07:27:45;;;;;;;15.93;7.63;;;;;;;15.96;36.87;98812.53;8327752;28;20217;-70
2021/03/31 07:31:48;;;;;;;15.57;8.60;;;;;;;16.18;37.15;98820.94;8325650;28;20191;-70
2021/03/31 07:35:51;;;;;;;16.00;7.80;;;;;;;16.61;36.83;98813.34;8318651;28;20302;-70
2021/03/31 07:39:54;;;;;;;15.43;8.00;;;;;;;16.85;35.77;98819.94;8299479;28;20225;-70
2021/03/31 07:43:57;;;;;;;14.27;7.73;;;;;;;16.26;36.74;98817.03;8298920;28;20255;-70
2021/03/31 07:48:00;;;;;;;15.40;8.00;;;;;;;16.23;36.81;98818.06;8305246;28;20280;-70
2021/03/31 07:52:04;;;;;;;14.00;8.10;;;;;;;16.62;36.11;98814.22;8314073;28;20242;-70
2021/03/31 07:56:13;;;;;;;17.70;8.30;;;;;;;16.55;35.75;98813.69;8331807;28;20242;-69
2021/03/31 08:00:52;;;;;;;13.73;8.50;;;;;;;16.69;35.60;98814.69;8332991;28;20197;-70
2021/03/31 08:05:07;;;;;;;15.53;8.43;;;;;;;16.39;35.85;98812.84;8333153;28;20223;-70
2021/03/31 08:09:11;;;;;;;19.47;8.20;;;;;;;16.68;36.61;98813.00;8332661;28;20238;-70
2021/03/31 08:13:29;;;;;;;11.47;7.63;;;;;;;17.35;35.71;98811.78;8333119;28;20204;-70
2021/03/31 08:17:33;;;;;;;18.40;8.40;;;;;;;17.42;33.93;98814.91;8331347;28;20220;-70
2021/03/31 08:21:36;;;;;;;17.37;7.63;;;;;;;18.34;32.00;98805.88;8330344;28;20231;-70
2021/03/31 08:25:39;;;;;;;17.73;8.60;;;;;;;17.69;33.67;98803.72;8330865;28;20208;-69
2021/03/31 08:29:48;;;;;;;16.50;8.37;;;;;;;18.84;32.50;98800.97;8332903;28;20278;-70
2021/03/31 08:33:50;;;;;;;14.43;8.37;;;;;;;19.14;31.63;98796.34;8332347;28;20188;-70
2021/03/31 08:37:53;;;;;;;9.60;8.13;;;;;;;18.93;31.18;98803.84;8331740;28;20726;-70
2021/03/31 08:41:56;;;;;;;13.80;8.43;;;;;;;19.25;30.16;98793.00;8332463;28;20197;-70
2021/03/31 08:46:04;;;;;;;18.77;8.73;;;;;;;19.94;30.01;98800.63;8331016;28;20316;-70
2021/03/31 08:50:08;;;;;;;15.80;8.87;;;;;;;19.86;29.48;98805.56;8330934;28;20272;-70
2021/03/31 08:54:12;;;;;;;23.73;9.90;;;;;;;20.33;28.20;98801.38;8331185;28;20204;-70
2021/03/31 08:58:14;;;;;;;20.87;8.57;;;;;;;21.17;28.31;98791.78;8331359;28;20231;-70
2021/03/31 09:02:19;;;;;;;16.80;9.80;;;;;;;21.01;26.91;98793.88;8330617;28;20212;-70
2021/03/31 09:06:41;;;;;;;17.10;9.87;;;;;;;21.89;26.60;98795.16;8331345;28;20608;-70
2021/03/31 09:10:52;;;;;;;21.67;10.73;;;;;;;21.04;26.52;98786.59;8330625;28;20220;-70
2021/03/31 09:14:56;;;;;;;21.20;11.00;;;;;;;21.80;26.38;98789.66;8331603;28;20554;-70
2021/03/31 09:18:58;;;;;;;21.50;10.30;;;;;;;21.70;26.33;98777.31;8330496;28;20316;-70
2021/03/31 09:23:00;;;;;;;17.73;10.83;;;;;;;22.50;25.91;98771.03;8330390;28;20200;-70
2021/03/31 09:27:05;;;;;;;26.07;10.53;;;;;;;22.65;26.68;98772.41;8329579;28;20203;-70
2021/03/31 09:31:08;;;;;;;17.40;10.60;;;;;;;23.41;25.91;98762.59;8330793;28;20236;-70
2021/03/31 09:40:18;;;;;;;23.17;11.10;;;;;;;23.25;25.55;98761.38;8330446;28;20216;-70
2021/03/31 09:44:21;;;;;;;26.43;11.20;;;;;;;23.70;25.06;98761.91;8330094;28;20198;-70
2021/03/31 09:48:24;;;;;;;18.57;10.80;;;;;;;24.28;24.35;98753.38;8330387;28;20314;-70
2021/03/31 09:52:27;;;;;;;23.03;13.07;;;;;;;23.67;23.12;98745.50;8331494;28;20232;-70
2021/03/31 09:56:29;;;;;;;23.53;12.10;;;;;;;24.02;23.46;98747.72;8322389;28;21099;-70
2021/03/31 10:00:37;;;;;;;30.27;13.57;;;;;;;24.10;22.23;98733.84;8327646;28;20607;-70
2021/03/31 10:04:41;;;;;;;19.23;12.50;;;;;;;24.60;21.85;98731.19;8329948;28;20251;-70
2021/03/31 10:08:44;;;;;;;26.43;13.57;;;;;;;25.15;20.69;98727.91;8330076;28;20200;-70
2021/03/31 10:12:45;;;;;;;19.73;12.60;;;;;;;25.52;20.88;98727.16;8330104;28;20216;-68
2021/03/31 10:16:50;;;;;;;24.33;12.17;;;;;;;25.75;20.89;98720.50;8313807;28;20660;-70
2021/03/31 10:20:52;;;;;;;23.53;12.43;;;;;;;25.59;20.88;98722.97;8295733;28;20201;-69
2021/03/31 10:24:54;;;;;;;22.90;13.07;;;;;;;25.84;20.68;98721.44;8308487;28;20606;-70
2021/03/31 10:29:06;;;;;;;21.60;13.13;;;;;;;26.10;20.22;98712.81;8319800;28;20230;-70
2021/03/31 10:33:18;;;;;;;21.70;12.53;;;;;;;26.11;20.14;98715.31;8328938;28;20542;-70
2021/03/31 10:37:27;;;;;;;25.30;12.03;;;;;;;26.34;20.19;98715.75;8328701;28;20223;-70
2021/03/31 10:41:46;;;;;;;19.20;11.97;;;;;;;26.52;19.74;98705.16;8328510;28;20283;-70
2021/03/31 10:50:14;;;;;;;16.77;12.67;;;;;;;26.32;19.74;98691.16;8334963;28;20211;-70
2021/03/31 10:54:19;;;;;;;21.43;13.57;;;;;;;26.40;19.49;98685.09;8335499;28;20216;-69
2021/03/31 10:58:21;;;;;;;20.13;13.40;;;;;;;26.44;19.87;98685.63;8334767;28;20232;-70
2021/03/31 11:02:24;;;;;;;23.07;14.10;;;;;;;26.49;19.58;98680.72;8335400;28;20204;-70
2021/03/31 11:06:30;;;;;;;18.73;11.73;;;;;;;26.65;19.34;98669.41;8333628;28;20655;-70
2021/03/31 11:10:33;;;;;;;21.30;11.73;;;;;;;26.71;19.79;98669.66;8335219;28;20275;-70
2021/03/31 11:14:37;;;;;;;17.77;11.23;;;;;;;26.76;18.93;98655.06;8331157;28;20208;-70
2021/03/31 11:18:49;;;;;;;21.73;12.07;;;;;;;25.82;19.13;98650.97;8334193;28;20236;-70
2021/03/31 11:27:13;;;;;;;16.50;11.70;;;;;;;26.38;19.23;98635.78;8317447;28;20221;-71
2021/03/31 11:31:16;;;;;;;15.87;10.37;;;;;;;26.60;19.96;98638.00;8327739;28;20660;-70
2021/03/31 11:35:19;;;;;;;17.30;9.50;;;;;;;26.68;19.93;98632.75;8331097;28;20743;-70
2021/03/31 11:39:23;;;;;;;16.90;10.03;;;;;;;26.60;18.25;98623.88;8334836;28;20622;-70
2021/03/31 11:43:26;;;;;;;15.87;10.27;;;;;;;26.20;18.35;98614.53;8334793;28;20204;-70
2021/03/31 11:47:29;;;;;;;13.67;9.67;;;;;;;26.12;18.18;98620.59;8334362;28;20756;-71
2021/03/31 11:51:33;;;;;;;12.97;10.27;;;;;;;26.62;19.06;98612.13;8333829;28;20610;-70
2021/03/31 11:55:38;;;;;;;15.97;9.40;;;;;;;26.78;18.51;98607.91;8333397;28;20196;-71
2021/03/31 11:59:42;;;;;;;17.43;11.33;;;;;;;26.94;18.31;98599.19;8334205;28;20264;-71
2021/03/31 12:03:46;;;;;;;17.80;11.30;;;;;;;26.89;18.75;98603.16;8335519;28;20208;-71
2021/03/31 12:07:50;;;;;;;13.67;9.83;;;;;;;27.28;17.71;98593.94;8334879;28;20508;-71
2021/03/31 12:11:54;;;;;;;15.33;10.20;;;;;;;27.30;18.16;98582.16;8333684;28;20252;-71
2021/03/31 12:15:58;;;;;;;15.17;9.63;;;;;;;26.93;17.42;98577.13;8333494;28;20648;-71
2021/03/31 12:20:02;;;;;;;11.77;7.87;;;;;;;27.23;17.59;98573.13;8333678;28;20692;-71
2021/03/31 12:24:07;;;;;;;16.73;11.40;;;;;;;26.48;17.55;98562.19;8333808;28;20199;-71
2021/03/31 12:28:13;;;;;;;16.90;9.93;;;;;;;26.21;17.19;98563.13;8334578;28;20327;-71
2021/03/31 12:32:19;;;;;;;15.47;9.60;;;;;;;26.98;17.57;98558.88;8333880;28;20195;-71
2021/03/31 12:36:22;;;;;;;13.40;9.50;;;;;;;27.01;17.59;98553.22;8333884;28;20263;-71
2021/03/31 12:40:25;;;;;;;14.60;10.57;;;;;;;27.31;17.38;98548.41;8333900;28;20560;-71
2021/03/31 12:44:30;;;;;;;12.33;9.10;;;;;;;27.60;17.10;98536.53;8333044;28;20229;-73
2021/03/31 12:48:34;;;;;;;10.97;7.90;;;;;;;27.33;15.47;98533.13;8333956;28;20198;-71
2021/03/31 12:52:42;;;;;;;9.30;6.67;;;;;;;27.58;16.58;98522.56;8334453;28;20636;-71
2021/03/31 12:56:45;;;;;;;9.97;7.50;;;;;;;27.64;16.20;98514.75;8333820;28;20212;-72
2021/03/31 13:00:53;;;;;;;15.60;7.50;;;;;;;27.73;16.24;98514.78;8333636;28;20304;-71
2021/03/31 13:05:17;;;;;;;12.70;8.43;;;;;;;27.49;15.92;98511.91;8333491;28;20620;-72
2021/03/31 13:09:22;;;;;;;10.00;8.17;;;;;;;27.60;16.25;98504.63;8332792;28;20251;-73
2021/03/31 13:32:03;;;;;;;14.53;8.07;;;;;;;27.55;15.85;98475.88;8289540;28;20258;-71
2021/03/31 13:36:13;;;;;;;15.50;9.40;;;;;;;26.98;16.41;98476.50;8331688;28;20211;-71
2021/03/31 13:40:16;;;;;;;14.17;8.37;;;;;;;27.50;16.27;98468.34;8330203;28;20321;-71
2021/03/31 13:44:19;;;;;;;17.30;10.50;;;;;;;27.32;16.28;98472.97;8330352;28;20196;-71
2021/03/31 13:48:29;;;;;;;12.43;7.93;;;;;;;27.57;17.81;98462.38;8330433;28;20202;-71
2021/03/31 13:52:34;;;;;;;11.27;7.97;;;;;;;27.70;17.44;98465.38;8330075;28;20219;-71
2021/03/31 13:56:41;;;;;;;14.00;9.50;;;;;;;27.52;16.64;98454.06;8330655;28;20221;-70
2021/03/31 14:00:47;;;;;;;14.03;8.17;;;;;;;27.52;17.57;98448.75;8329445;28;20192;-69
2021/03/31 14:05:00;;;;;;;11.77;9.40;;;;;;;27.47;17.54;98444.75;8329741;28;20204;-71
2021/03/31 14:09:23;;;;;;;13.07;9.50;;;;;;;27.28;17.26;98440.56;8328815;28;20286;-71
2021/03/31 14:13:45;;;;;;;20.73;12.00;;;;;;;26.90;17.51;98431.28;8329441;28;20207;-71
2021/03/31 14:17:47;;;;;;;15.90;11.27;;;;;;;26.69;17.43;98421.06;8332504;28;20221;-71
2021/03/31 14:21:49;;;;;;;13.30;9.93;;;;;;;27.09;18.15;98423.06;8336646;28;20619;-71
2021/03/31 14:25:52;;;;;;;17.00;10.10;;;;;;;26.96;18.19;98417.38;8335699;28;20204;-71
2021/03/31 14:29:56;;;;;;;18.13;11.33;;;;;;;26.90;16.76;98405.56;8336359;28;20245;-71
2021/03/31 14:33:57;;;;;;;21.57;11.80;;;;;;;26.06;17.25;98407.09;8334596;28;20196;-71
2021/03/31 14:38:19;;;;;;;14.03;9.67;;;;;;;26.37;17.71;98409.28;8332100;28;20311;-71
2021/03/31 14:42:42;;;;;;;16.17;11.17;;;;;;;26.16;16.70;98403.50;8320110;28;20687;-71
2021/03/31 14:47:05;;;;;;;13.93;10.60;;;;;;;26.22;17.29;98401.06;8334452;28;20295;-71
2021/03/31 14:51:27;;;;;;;15.20;10.90;;;;;;;26.28;16.98;98389.81;8306224;28;20211;-71
2021/03/31 15:00:22;;;;;;;13.70;9.93;;;;;;;26.41;17.12;98384.09;8326023;28;20213;-71
2021/03/31 15:04:24;;;;;;;12.33;8.40;;;;;;;26.36;17.27;98382.91;8302495;28;20224;-71
2021/03/31 15:08:26;;;;;;;11.77;8.40;;;;;;;26.38;17.71;98376.44;8301235;28;20212;-71
2021/03/31 15:12:28;;;;;;;14.07;9.17;;;;;;;26.24;17.66;98379.69;8301898;28;20210;-70
2021/03/31 15:16:50;;;;;;;13.27;9.60;;;;;;;25.89;17.28;98371.66;8316366;28;20312;-71
2021/03/31 15:20:58;;;;;;;13.50;8.50;;;;;;;25.85;18.12;98364.16;8333740;28;20584;-71
2021/03/31 15:25:23;;;;;;;11.77;8.07;;;;;;;25.67;19.29;98367.66;8333168;28;20585;-72
2021/03/31 15:29:45;;;;;;;15.50;8.10;;;;;;;25.59;20.37;98364.13;8333164;28;20232;-71
2021/03/31 15:33:47;;;;;;;13.17;8.07;;;;;;;25.45;20.08;98358.38;8334406;28;20200;-71
2021/03/31 15:37:54;;;;;;;11.27;8.13;;;;;;;25.14;19.48;98350.78;8301234;28;20237;-72
2021/03/31 15:42:01;;;;;;;20.30;7.93;;;;;;;25.12;19.92;98350.09;8320795;28;20193;-71
2021/03/31 15:46:08;;;;;;;33.80;9.00;;;;;;;25.11;19.93;98340.50;8333674;28;20205;-71
2021/03/31 15:50:13;;;;;;;12.97;8.23;;;;;;;25.01;21.26;98342.38;8334004;28;20215;-71
2021/03/31 15:54:20;;;;;;;15.57;8.37;;;;;;;24.96;21.42;98336.72;8333639;28;20549;-71
2021/03/31 15:58:26;;;;;;;16.27;8.50;;;;;;;24.75;22.31;98329.03;8333676;28;20687;-71
2021/03/31 16:02:33;;;;;;;13.43;7.43;;;;;;;24.67;21.34;98326.28;8333493;28;20640;-70
2021/03/31 16:11:05;;;;;;;14.20;7.50;;;;;;;24.36;20.86;98324.75;8324349;28;20543;-70
2021/03/31 16:15:13;;;;;;;11.57;7.63;;;;;;;24.24;21.44;98322.44;8328303;28;20193;-70
2021/03/31 16:19:20;;;;;;;11.50;7.33;;;;;;;24.23;22.50;98318.97;8307777;28;20209;-72
2021/03/31 16:23:27;;;;;;;10.63;7.37;;;;;;;24.17;21.49;98317.75;8313626;28;20200;-75
2021/03/31 16:27:54;;;;;;;12.10;8.90;;;;;;;24.07;20.57;98311.66;8315056;28;20295;-70
2021/03/31 16:32:00;;;;;;;13.33;7.63;;;;;;;23.92;21.68;98310.47;8315416;28;20573;-71
2021/03/31 16:36:07;;;;;;;14.43;8.83;;;;;;;23.76;19.71;98314.53;8329468;28;20295;-71
2021/03/31 16:40:15;;;;;;;13.13;8.80;;;;;;;23.66;19.63;98300.47;8313622;28;20232;-70
2021/03/31 16:44:22;;;;;;;11.87;8.37;;;;;;;23.50;19.72;98294.97;8311697;28;20205;-70
2021/03/31 16:48:28;;;;;;;10.60;7.33;;;;;;;23.51;22.02;98299.25;8314003;28;20204;-70
2021/03/31 16:52:35;;;;;;;10.53;7.63;;;;;;;23.39;21.60;98291.47;8314677;28;20555;-71
2021/03/31 16:56:43;;;;;;;13.40;7.40;;;;;;;23.28;23.10;98290.81;8311917;28;20192;-72
2021/03/31 17:00:49;;;;;;;12.33;9.37;;;;;;;23.14;20.73;98289.44;8315071;28;20678;-70
2021/03/31 17:04:56;;;;;;;16.27;8.83;;;;;;;23.00;21.63;98280.94;8311963;28;20207;-71
2021/03/31 17:09:03;;;;;;;14.43;8.13;;;;;;;22.96;22.76;98279.53;8313688;28;20214;-70
2021/03/31 17:13:11;;;;;;;13.73;9.80;;;;;;;22.83;21.54;98287.72;8317994;28;20219;-71
2021/03/31 17:17:18;;;;;;;10.87;7.17;;;;;;;22.74;24.13;98277.16;8310402;28;20251;-70
2021/03/31 17:21:25;;;;;;;14.73;8.70;;;;;;;22.61;25.17;98270.31;8307810;28;20202;-71
2021/03/31 17:25:32;;;;;;;11.20;7.10;;;;;;;22.49;25.59;98268.78;8316027;28;20540;-70
2021/03/31 17:29:39;;;;;;;17.57;9.30;;;;;;;22.35;26.60;98277.94;8310665;28;20250;-70
2021/03/31 17:33:46;;;;;;;12.37;8.13;;;;;;;22.23;27.62;98268.41;8314239;28;20556;-70
2021/03/31 17:37:57;;;;;;;14.90;9.40;;;;;;;22.09;27.94;98266.97;8325430;28;20241;-70
2021/03/31 17:42:04;;;;;;;14.93;8.57;;;;;;;21.98;28.74;98282.91;8330879;28;20185;-69
2021/03/31 17:46:12;;;;;;;18.90;8.37;;;;;;;21.86;29.76;98277.72;8330492;28;20186;-70
2021/03/31 17:50:21;;;;;;;27.73;9.43;;;;;;;21.73;31.30;98287.63;8330439;28;20189;-70
2021/03/31 17:54:27;;;;;;;34.17;8.80;;;;;;;21.55;31.33;98295.31;8330394;28;20196;-70
2021/03/31 17:58:34;;;;;;;29.97;8.23;;;;;;;21.41;30.63;98287.69;8297608;28;20550;-71
2021/03/31 18:02:42;;;;;;;20.03;6.90;;;;;;;21.31;29.97;98287.63;8296463;28;20204;-71
2021/03/31 18:06:49;;;;;;;13.27;6.20;;;;;;;21.18;29.80;98290.44;8299424;28;20304;-72
2021/03/31 18:10:56;;;;;;;9.37;6.90;;;;;;;21.07;29.11;98291.31;8305911;28;20484;-72
2021/03/31 18:14:58;;;;;;;18.10;7.40;;;;;;;20.94;29.80;98300.34;8329760;28;20609;-72
2021/03/31 18:19:05;;;;;;;23.10;7.43;;;;;;;20.84;30.67;98298.47;8328953;28;20212;-70
2021/03/31 18:23:08;;;;;;;14.40;7.30;;;;;;;20.74;31.56;98288.84;8331037;28;20278;-71
2021/03/31 18:27:14;;;;;;;18.80;7.00;;;;;;;20.56;31.08;98299.84;8326931;28;20541;-71
2021/03/31 18:31:21;;;;;;;14.83;5.57;;;;;;;20.51;31.40;98300.19;8330112;28;20204;-70
2021/03/31 18:35:29;;;;;;;12.07;5.00;;;;;;;20.37;33.22;98299.63;8330008;28;20227;-72
2021/03/31 18:39:36;;;;;;;13.37;5.00;;;;;;;20.24;32.75;98294.53;8331514;28;20240;-71
2021/03/31 18:43:44;;;;;;;12.53;4.60;;;;;;;20.11;33.21;98302.53;8329459;28;20180;-70
2021/03/31 18:47:50;;;;;;;11.53;5.00;;;;;;;19.97;33.45;98303.59;8328914;28;20212;-70
2021/03/31 18:51:58;;;;;;;14.43;5.27;;;;;;;19.86;33.28;98300.97;8330462;28;20191;-71
2021/03/31 18:56:06;;;;;;;8.23;4.80;;;;;;;19.77;33.81;98293.78;8329203;28;20184;-71
2021/03/31 19:00:08;;;;;;;13.70;4.70;;;;;;;19.65;34.14;98296.38;8329467;28;20619;-72
2021/03/31 19:04:15;;;;;;;16.03;6.30;;;;;;;19.61;34.38;98292.31;8333268;28;20185;-72
2021/03/31 19:08:38;;;;;;;16.50;7.03;;;;;;;19.51;34.48;98292.19;8441491;23;20242;-72
2021/03/31 19:12:45;;;;;;;18.20;7.60;;;;;;;19.40;34.86;98286.03;8262987;28;20198;-71
2021/03/31 19:16:53;;;;;;;21.03;8.60;;;;;;;19.35;35.34;98283.78;8271082;28;20661;-71
2021/03/31 19:20:55;;;;;;;19.17;9.17;;;;;;;19.21;36.05;98287.44;8269340;28;20316;-72
2021/03/31 19:25:04;;;;;;;14.93;9.10;;;;;;;19.10;36.53;98288.22;8270629;28;20625;-71
2021/03/31 19:29:11;;;;;;;16.87;8.03;;;;;;;19.06;36.17;98281.53;8271826;28;20349;-72
2021/03/31 19:33:19;;;;;;;16.00;8.77;;;;;;;18.93;36.49;98278.16;8268485;28;20206;-71
2021/03/31 19:37:21;;;;;;;14.33;7.47;;;;;;;18.83;36.72;98279.75;8269338;28;20265;-69
2021/03/31 19:41:31;;;;;;;20.70;9.27;;;;;;;18.72;36.67;98278.72;8268734;28;20201;-69
2021/03/31 19:45:39;;;;;;;21.93;10.87;;;;;;;18.61;36.84;98272.59;8269854;28;20582;-70